createdAt,value
2016-03-25T00:00:07.775Z,0
2016-03-25T00:01:07.825Z,0
2016-03-25T00:02:07.766Z,0
2016-03-25T00:03:07.737Z,0
2016-03-25T00:04:07.817Z,0
2016-03-25T00:05:07.757Z,0
2016-03-25T00:06:07.776Z,0
2016-03-25T00:07:07.771Z,0
2016-03-25T00:08:07.835Z,0
2016-03-25T00:09:07.759Z,0
2016-03-25T00:10:07.731Z,0
2016-03-25T00:11:07.750Z,0
2016-03-25T00:12:07.753Z,0
2016-03-25T00:13:07.739Z,0
2016-03-25T00:14:07.726Z,0
2016-03-25T00:15:07.761Z,0
2016-03-25T00:16:07.763Z,0
2016-03-25T00:17:07.719Z,0
2016-03-25T00:18:07.769Z,0
2016-03-25T00:19:07.739Z,0
2016-03-25T00:20:07.727Z,0
2016-03-25T00:21:07.745Z,0
2016-03-25T00:22:07.747Z,0
2016-03-25T00:23:07.766Z,0
2016-03-25T00:24:07.769Z,0
2016-03-25T00:25:07.740Z,0
2016-03-25T00:26:07.774Z,0
2016-03-25T00:27:07.746Z,0
2016-03-25T00:28:07.716Z,0
2016-03-25T00:29:07.736Z,0
2016-03-25T00:30:07.769Z,0
2016-03-25T00:31:07.724Z,0
2016-03-25T00:32:07.790Z,0
2016-03-25T00:33:07.746Z,0
2016-03-25T00:34:07.749Z,0
2016-03-25T00:35:07.783Z,0
2016-03-25T00:36:07.754Z,0
2016-03-25T00:37:07.726Z,0
2016-03-25T00:38:07.759Z,0
2016-03-25T00:39:07.715Z,0
2016-03-25T00:40:07.718Z,0
2016-03-25T00:41:07.798Z,0
2016-03-25T00:42:07.708Z,0
2016-03-25T00:43:07.711Z,0
2016-03-25T00:44:07.728Z,0
2016-03-25T00:45:07.732Z,0
2016-03-25T00:46:07.719Z,0
2016-03-25T00:47:07.689Z,0
2016-03-25T00:48:07.709Z,0
2016-03-25T00:49:07.711Z,0
2016-03-25T00:50:07.713Z,0
2016-03-25T00:51:07.733Z,0
2016-03-25T00:52:07.719Z,0
2016-03-25T00:53:07.706Z,0
2016-03-25T00:54:07.694Z,0
2016-03-25T00:55:07.727Z,0
2016-03-25T00:56:07.714Z,0
2016-03-25T00:57:06.966Z,0
2016-03-25T00:58:07.719Z,0
2016-03-25T00:59:07.721Z,0
2016-03-25T01:00:07.678Z,0
2016-03-25T01:01:07.712Z,0
2016-03-25T01:02:07.730Z,0
2016-03-25T01:03:07.686Z,0
2016-03-25T01:04:07.689Z,0
2016-03-25T01:05:07.707Z,0
2016-03-25T01:06:07.694Z,0
2016-03-25T01:07:07.526Z,0
2016-03-25T01:08:07.746Z,0
2016-03-25T01:09:07.718Z,0
2016-03-25T01:10:07.705Z,0
2016-03-25T01:11:07.692Z,0
2016-03-25T01:12:07.679Z,0
2016-03-25T01:13:07.697Z,0
2016-03-25T01:14:07.684Z,0
2016-03-25T01:15:07.687Z,0
2016-03-25T01:16:07.690Z,0
2016-03-25T01:17:07.693Z,0
2016-03-25T01:18:07.680Z,0
2016-03-25T01:19:07.698Z,0
2016-03-25T01:20:07.686Z,0
2016-03-25T01:21:07.719Z,0
2016-03-25T01:22:10.675Z,0
2016-03-25T01:23:07.693Z,0
2016-03-25T01:24:07.680Z,0
2016-03-25T01:25:07.714Z,0
2016-03-25T01:26:07.686Z,0
2016-03-25T01:27:07.704Z,0
2016-03-25T01:28:07.675Z,0
2016-03-25T01:29:07.693Z,0
2016-03-25T01:30:07.666Z,0
2016-03-25T01:31:07.668Z,0
2016-03-25T01:32:07.671Z,0
2016-03-25T01:33:07.688Z,0
2016-03-25T01:34:07.723Z,0
2016-03-25T01:35:07.679Z,0
2016-03-25T01:36:07.650Z,0
2016-03-25T01:37:07.684Z,0
2016-03-25T01:38:07.780Z,0
2016-03-25T01:39:07.657Z,0
2016-03-25T01:40:07.692Z,0
2016-03-25T01:41:07.679Z,0
2016-03-25T01:42:07.682Z,0
2016-03-25T01:43:07.653Z,0
2016-03-25T01:44:07.671Z,0
2016-03-25T01:45:07.643Z,0
2016-03-25T01:46:07.661Z,0
2016-03-25T01:47:07.648Z,0
2016-03-25T01:48:07.651Z,0
2016-03-25T01:49:07.653Z,0
2016-03-25T01:50:07.672Z,0
2016-03-25T01:51:07.644Z,0
2016-03-25T01:52:07.646Z,0
2016-03-25T01:53:07.961Z,0
2016-03-25T01:54:07.652Z,0
2016-03-25T01:55:07.654Z,0
2016-03-25T01:56:07.657Z,0
2016-03-25T01:57:07.816Z,0
2016-03-25T01:58:07.631Z,0
2016-03-25T01:59:07.633Z,0
2016-03-25T02:00:07.652Z,0
2016-03-25T02:01:07.655Z,0
2016-03-25T02:02:07.642Z,0
2016-03-25T02:03:07.660Z,0
2016-03-25T02:04:07.662Z,0
2016-03-25T02:05:07.649Z,0
2016-03-25T02:06:07.621Z,0
2016-03-25T02:07:07.608Z,0
2016-03-25T02:08:07.626Z,0
2016-03-25T02:09:07.613Z,0
2016-03-25T02:10:07.601Z,0
2016-03-25T02:11:07.634Z,0
2016-03-25T02:12:07.621Z,0
2016-03-25T02:13:07.640Z,0
2016-03-25T02:14:07.595Z,0
2016-03-25T02:15:07.615Z,0
2016-03-25T02:16:07.617Z,0
2016-03-25T02:17:07.588Z,0
2016-03-25T02:18:07.592Z,0
2016-03-25T02:19:07.609Z,0
2016-03-25T02:20:07.596Z,0
2016-03-25T02:21:07.615Z,0
2016-03-25T02:22:07.617Z,0
2016-03-25T02:23:08.011Z,0
2016-03-25T02:24:07.622Z,0
2016-03-25T02:25:07.610Z,0
2016-03-25T02:26:07.753Z,0
2016-03-25T02:27:07.568Z,0
2016-03-25T02:28:07.586Z,0
2016-03-25T02:29:07.588Z,0
2016-03-25T02:30:07.607Z,0
2016-03-25T02:31:07.595Z,0
2016-03-25T02:32:07.566Z,0
2016-03-25T02:33:07.662Z,0
2016-03-25T02:34:07.572Z,0
2016-03-25T02:35:07.558Z,0
2016-03-25T02:36:07.576Z,0
2016-03-25T02:37:07.563Z,0
2016-03-25T02:38:07.441Z,0
2016-03-25T02:39:07.616Z,0
2016-03-25T02:40:07.572Z,0
2016-03-25T02:41:07.590Z,0
2016-03-25T02:42:07.562Z,0
2016-03-25T02:43:07.580Z,0
2016-03-25T02:44:07.551Z,0
2016-03-25T02:45:07.569Z,0
2016-03-25T02:46:07.572Z,0
2016-03-25T02:47:07.536Z,0
2016-03-25T02:48:07.570Z,0
2016-03-25T02:49:07.512Z,0
2016-03-25T02:50:07.499Z,0
2016-03-25T02:51:07.518Z,0
2016-03-25T02:52:07.480Z,0
2016-03-25T02:53:07.383Z,0
2016-03-25T02:54:07.475Z,0
2016-03-25T02:55:07.440Z,0
2016-03-25T02:56:07.438Z,0
2016-03-25T02:57:07.421Z,0
2016-03-25T02:58:07.422Z,0
2016-03-25T02:59:07.423Z,0
2016-03-25T03:00:07.424Z,0
2016-03-25T03:01:07.439Z,0
2016-03-25T03:02:07.426Z,0
2016-03-25T03:03:07.396Z,0
2016-03-25T03:04:07.414Z,0
2016-03-25T03:05:07.416Z,0
2016-03-25T03:06:07.448Z,0
2016-03-25T03:07:07.403Z,0
2016-03-25T03:08:07.453Z,0
2016-03-25T03:09:07.424Z,0
2016-03-25T03:10:07.410Z,0
2016-03-25T03:11:07.429Z,0
2016-03-25T03:12:07.384Z,0
2016-03-25T03:13:07.403Z,0
2016-03-25T03:14:07.437Z,0
2016-03-25T03:15:07.408Z,0
2016-03-25T03:16:07.380Z,0
2016-03-25T03:17:07.398Z,0
2016-03-25T03:18:07.385Z,0
2016-03-25T03:19:07.356Z,0
2016-03-25T03:20:07.359Z,0
2016-03-25T03:21:07.362Z,0
2016-03-25T03:22:07.380Z,0
2016-03-25T03:23:07.445Z,0
2016-03-25T03:24:07.370Z,0
2016-03-25T03:25:07.388Z,0
2016-03-25T03:26:07.360Z,0
2016-03-25T03:27:07.378Z,0
2016-03-25T03:28:07.349Z,0
2016-03-25T03:29:07.369Z,0
2016-03-25T03:30:07.372Z,0
2016-03-25T03:31:07.327Z,0
2016-03-25T03:32:07.361Z,0
2016-03-25T03:33:07.348Z,0
2016-03-25T03:34:07.335Z,0
2016-03-25T03:35:07.385Z,0
2016-03-25T03:36:07.372Z,0
2016-03-25T03:37:07.187Z,0
2016-03-25T03:38:07.378Z,0
2016-03-25T03:39:07.349Z,0
2016-03-25T03:40:07.320Z,0
2016-03-25T03:41:07.355Z,0
2016-03-25T03:42:07.326Z,0
2016-03-25T03:43:07.328Z,0
2016-03-25T03:44:07.332Z,0
2016-03-25T03:45:07.318Z,0
2016-03-25T03:46:07.337Z,0
2016-03-25T03:47:07.355Z,0
2016-03-25T03:48:07.342Z,0
2016-03-25T03:49:07.298Z,0
2016-03-25T03:50:07.331Z,0
2016-03-25T03:51:07.350Z,0
2016-03-25T03:52:07.321Z,0
2016-03-25T03:53:07.355Z,0
2016-03-25T03:54:06.562Z,0
2016-03-25T03:55:07.314Z,0
2016-03-25T03:56:07.300Z,0
2016-03-25T03:57:07.288Z,0
2016-03-25T03:58:07.306Z,0
2016-03-25T03:59:07.278Z,0
2016-03-25T04:00:07.295Z,0
2016-03-25T04:01:07.314Z,0
2016-03-25T04:02:07.301Z,0
2016-03-25T04:03:07.288Z,0
2016-03-25T04:04:07.291Z,0
2016-03-25T04:05:07.294Z,0
2016-03-25T04:06:07.281Z,0
2016-03-25T04:07:07.283Z,0
2016-03-25T04:08:07.301Z,0
2016-03-25T04:09:07.289Z,0
2016-03-25T04:10:07.322Z,0
2016-03-25T04:11:07.263Z,0
2016-03-25T04:12:07.266Z,0
2016-03-25T04:13:07.252Z,0
2016-03-25T04:14:07.271Z,0
2016-03-25T04:15:07.258Z,0
2016-03-25T04:16:07.260Z,0
2016-03-25T04:17:07.263Z,0
2016-03-25T04:18:07.251Z,0
2016-03-25T04:19:07.238Z,0
2016-03-25T04:20:07.256Z,0
2016-03-25T04:21:07.259Z,0
2016-03-25T04:22:07.245Z,0
2016-03-25T04:23:07.280Z,0
2016-03-25T04:24:07.235Z,0
2016-03-25T04:25:07.253Z,0
2016-03-25T04:26:07.256Z,0
2016-03-25T04:27:07.243Z,0
2016-03-25T04:28:07.231Z,0
2016-03-25T04:29:07.217Z,0
2016-03-25T04:30:07.251Z,0
2016-03-25T04:31:07.223Z,0
2016-03-25T04:32:07.256Z,0
2016-03-25T04:33:07.213Z,0
2016-03-25T04:34:07.231Z,0
2016-03-25T04:35:07.249Z,0
2016-03-25T04:36:07.253Z,0
2016-03-25T04:37:07.224Z,0
2016-03-25T04:38:07.241Z,0
2016-03-25T04:39:07.214Z,0
2016-03-25T04:40:07.232Z,0
2016-03-25T04:41:07.249Z,0
2016-03-25T04:42:07.221Z,0
2016-03-25T04:43:07.224Z,0
2016-03-25T04:44:07.211Z,0
2016-03-25T04:45:07.214Z,0
2016-03-25T04:46:07.248Z,0
2016-03-25T04:47:07.234Z,0
2016-03-25T04:48:07.222Z,0
2016-03-25T04:49:07.193Z,0
2016-03-25T04:50:07.211Z,0
2016-03-25T04:51:07.199Z,0
2016-03-25T04:52:07.248Z,4
2016-03-25T04:53:07.220Z,4
2016-03-25T04:54:07.191Z,4
2016-03-25T04:55:07.225Z,0
2016-03-25T04:56:07.212Z,0
2016-03-25T04:57:07.230Z,4
2016-03-25T04:58:07.218Z,4
2016-03-25T04:59:07.220Z,4
2016-03-25T05:00:07.207Z,8
2016-03-25T05:01:07.242Z,4
2016-03-25T05:02:07.197Z,8
2016-03-25T05:03:07.184Z,8
2016-03-25T05:04:07.202Z,12
2016-03-25T05:05:07.220Z,12
2016-03-25T05:06:07.191Z,8
2016-03-25T05:07:07.194Z,12
2016-03-25T05:08:07.215Z,12
2016-03-25T05:09:07.202Z,16
2016-03-25T05:10:07.204Z,20
2016-03-25T05:11:07.207Z,20
2016-03-25T05:12:07.162Z,28
2016-03-25T05:13:07.196Z,28
2016-03-25T05:14:07.168Z,32
2016-03-25T05:15:07.186Z,40
2016-03-25T05:16:07.173Z,48
2016-03-25T05:17:07.191Z,56
2016-03-25T05:18:07.194Z,64
2016-03-25T05:19:07.166Z,68
2016-03-25T05:20:07.168Z,76
2016-03-25T05:21:07.202Z,84
2016-03-25T05:22:07.189Z,92
2016-03-25T05:23:07.160Z,96
2016-03-25T05:24:07.194Z,104
2016-03-25T05:25:07.135Z,112
2016-03-25T05:26:07.466Z,120
2016-03-25T05:27:07.405Z,128
2016-03-25T05:28:07.174Z,136
2016-03-25T05:29:07.161Z,144
2016-03-25T05:30:07.180Z,148
2016-03-25T05:31:07.135Z,152
2016-03-25T05:32:07.138Z,160
2016-03-25T05:33:07.157Z,160
2016-03-25T05:34:07.143Z,164
2016-03-25T05:35:07.162Z,160
2016-03-25T05:36:07.148Z,160
2016-03-25T05:37:07.152Z,156
2016-03-25T05:38:07.138Z,156
2016-03-25T05:39:07.141Z,160
2016-03-25T05:40:07.144Z,160
2016-03-25T05:41:07.146Z,160
2016-03-25T05:42:07.134Z,156
2016-03-25T05:43:07.152Z,160
2016-03-25T05:44:07.136Z,168
2016-03-25T05:45:07.123Z,180
2016-03-25T05:46:07.142Z,192
2016-03-25T05:47:07.128Z,204
2016-03-25T05:48:07.131Z,220
2016-03-25T05:49:07.102Z,240
2016-03-25T05:50:07.122Z,252
2016-03-25T05:51:07.124Z,264
2016-03-25T05:52:07.141Z,272
2016-03-25T05:53:07.145Z,268
2016-03-25T05:54:07.116Z,260
2016-03-25T05:55:07.165Z,268
2016-03-25T05:56:07.122Z,280
2016-03-25T05:57:07.124Z,308
2016-03-25T05:58:07.101Z,324
2016-03-25T05:59:07.135Z,348
2016-03-25T06:00:07.121Z,368
2016-03-25T06:01:07.108Z,392
2016-03-25T06:02:07.112Z,408
2016-03-25T06:03:07.098Z,428
2016-03-25T06:04:07.117Z,436
2016-03-25T06:05:07.120Z,468
2016-03-25T06:06:06.965Z,504
2016-03-25T06:07:07.093Z,548
2016-03-25T06:08:07.096Z,596
2016-03-25T06:09:07.083Z,644
2016-03-25T06:10:07.117Z,724
2016-03-25T06:11:07.089Z,824
2016-03-25T06:12:07.122Z,948
2016-03-25T06:13:07.095Z,1072
2016-03-25T06:14:07.112Z,1180
2016-03-25T06:15:07.083Z,1264
2016-03-25T06:16:07.103Z,1340
2016-03-25T06:17:07.105Z,1408
2016-03-25T06:18:07.091Z,1468
2016-03-25T06:19:07.125Z,1516
2016-03-25T06:20:07.097Z,1544
2016-03-25T06:21:07.131Z,1552
2016-03-25T06:22:07.087Z,1540
2016-03-25T06:23:07.090Z,1528
2016-03-25T06:24:07.108Z,1532
2016-03-25T06:25:07.110Z,1560
2016-03-25T06:26:07.066Z,1608
2016-03-25T06:27:07.101Z,1664
2016-03-25T06:28:07.087Z,1732
2016-03-25T06:29:07.074Z,1800
2016-03-25T06:30:07.062Z,1860
2016-03-25T06:31:07.079Z,1896
2016-03-25T06:32:07.082Z,1896
2016-03-25T06:33:07.054Z,1852
2016-03-25T06:34:07.073Z,1780
2016-03-25T06:35:06.951Z,1704
2016-03-25T06:36:07.078Z,1636
2016-03-25T06:37:07.081Z,1580
2016-03-25T06:38:07.068Z,1540
2016-03-25T06:39:07.070Z,1508
2016-03-25T06:40:07.088Z,1512
2016-03-25T06:41:07.060Z,1580
2016-03-25T06:42:07.078Z,1676
2016-03-25T06:43:07.049Z,1772
2016-03-25T06:44:07.100Z,1848
2016-03-25T06:45:07.055Z,1916
2016-03-25T06:46:07.073Z,1996
2016-03-25T06:47:07.061Z,2084
2016-03-25T06:48:07.032Z,2144
2016-03-25T06:49:07.050Z,2192
2016-03-25T06:50:06.913Z,2188
2016-03-25T06:51:07.071Z,2112
2016-03-25T06:52:07.043Z,2036
2016-03-25T06:53:07.046Z,1988
2016-03-25T06:54:07.048Z,2004
2016-03-25T06:55:07.083Z,2068
2016-03-25T06:56:07.054Z,2188
2016-03-25T06:57:07.071Z,2456
2016-03-25T06:58:07.059Z,2856
2016-03-25T06:59:07.062Z,3228
2016-03-25T07:00:07.032Z,3528
2016-03-25T07:01:07.067Z,3824
2016-03-25T07:02:07.038Z,4136
2016-03-25T07:03:07.041Z,4336
2016-03-25T07:04:07.075Z,4460
2016-03-25T07:05:07.046Z,4660
2016-03-25T07:06:07.064Z,4900
2016-03-25T07:07:07.051Z,5084
2016-03-25T07:08:07.039Z,5128
2016-03-25T07:09:07.042Z,5104
2016-03-25T07:10:07.059Z,5060
2016-03-25T07:11:07.032Z,5028
2016-03-25T07:12:07.065Z,5020
2016-03-25T07:13:07.083Z,5028
2016-03-25T07:14:07.023Z,5080
2016-03-25T07:15:07.042Z,5180
2016-03-25T07:16:07.044Z,5312
2016-03-25T07:17:07.063Z,5452
2016-03-25T07:18:07.050Z,5572
2016-03-25T07:19:07.068Z,5692
2016-03-25T07:20:07.056Z,5860
2016-03-25T07:21:07.042Z,6100
2016-03-25T07:22:07.060Z,6360
2016-03-25T07:23:07.080Z,6620
2016-03-25T07:24:07.066Z,6864
2016-03-25T07:25:07.052Z,7040
2016-03-25T07:26:07.290Z,7084
2016-03-25T07:27:07.058Z,6900
2016-03-25T07:28:07.077Z,6664
2016-03-25T07:29:07.049Z,6492
2016-03-25T07:30:07.067Z,6360
2016-03-25T07:31:07.085Z,6220
2016-03-25T07:32:07.057Z,6080
2016-03-25T07:33:07.059Z,5860
2016-03-25T07:34:07.062Z,5608
2016-03-25T07:35:07.064Z,5324
2016-03-25T07:36:07.083Z,5028
2016-03-25T07:37:07.054Z,4820
2016-03-25T07:38:07.073Z,4700
2016-03-25T07:39:07.076Z,4580
2016-03-25T07:40:07.062Z,4432
2016-03-25T07:41:07.080Z,4284
2016-03-25T07:42:07.084Z,4160
2016-03-25T07:43:07.055Z,4100
2016-03-25T07:44:07.073Z,4088
2016-03-25T07:45:07.061Z,4056
2016-03-25T07:46:07.064Z,4052
2016-03-25T07:47:07.081Z,4096
2016-03-25T07:48:07.084Z,4160
2016-03-25T07:49:07.056Z,4232
2016-03-25T07:50:07.089Z,4276
2016-03-25T07:51:07.077Z,4236
2016-03-25T07:52:07.079Z,4184
2016-03-25T07:53:07.082Z,4152
2016-03-25T07:54:07.069Z,4172
2016-03-25T07:55:07.088Z,4236
2016-03-25T07:56:07.105Z,4344
2016-03-25T07:57:07.092Z,4500
2016-03-25T07:58:07.079Z,4732
2016-03-25T07:59:07.083Z,4992
2016-03-25T08:00:07.085Z,5172
2016-03-25T08:01:07.087Z,5244
2016-03-25T08:02:07.091Z,5260
2016-03-25T08:03:07.046Z,5260
2016-03-25T08:04:07.095Z,5292
2016-03-25T08:05:07.082Z,5316
2016-03-25T08:06:07.445Z,5320
2016-03-25T08:07:06.979Z,5252
2016-03-25T08:08:07.059Z,5148
2016-03-25T08:09:07.265Z,5016
2016-03-25T08:10:07.112Z,4916
2016-03-25T08:11:07.083Z,4900
2016-03-25T08:12:07.086Z,4916
2016-03-25T08:13:06.901Z,4940
2016-03-25T08:14:07.075Z,4984
2016-03-25T08:15:07.078Z,5024
2016-03-25T08:16:07.081Z,5060
2016-03-25T08:17:07.100Z,5120
2016-03-25T08:18:07.055Z,5208
2016-03-25T08:19:07.058Z,5292
2016-03-25T08:20:07.076Z,5352
2016-03-25T08:21:07.094Z,5424
2016-03-25T08:22:07.066Z,5496
2016-03-25T08:23:07.053Z,5656
2016-03-25T08:24:07.102Z,5996
2016-03-25T08:25:07.089Z,6480
2016-03-25T08:26:07.077Z,6964
2016-03-25T08:27:07.063Z,7168
2016-03-25T08:28:07.097Z,6976
2016-03-25T08:29:07.069Z,6492
2016-03-25T08:30:07.071Z,6188
2016-03-25T08:31:08.435Z,6272
2016-03-25T08:32:07.093Z,6620
2016-03-25T08:33:07.065Z,7104
2016-03-25T08:34:07.083Z,7396
2016-03-25T08:35:07.070Z,7364
2016-03-25T08:36:07.073Z,7108
2016-03-25T08:37:07.090Z,6900
2016-03-25T08:38:07.078Z,6856
2016-03-25T08:39:07.158Z,6988
2016-03-25T08:40:07.098Z,7176
2016-03-25T08:41:07.070Z,7264
2016-03-25T08:42:07.104Z,7136
2016-03-25T08:43:07.092Z,6892
2016-03-25T08:44:07.062Z,6688
2016-03-25T08:45:07.065Z,6620
2016-03-25T08:46:07.084Z,6696
2016-03-25T08:47:07.102Z,6992
2016-03-25T08:48:07.073Z,7416
2016-03-25T08:49:07.092Z,7880
2016-03-25T08:50:07.079Z,8244
2016-03-25T08:51:07.082Z,8496
2016-03-25T08:52:07.100Z,8492
2016-03-25T08:53:07.087Z,8472
2016-03-25T08:54:07.527Z,8524
2016-03-25T08:55:07.108Z,8616
2016-03-25T08:56:06.955Z,8740
2016-03-25T08:57:07.113Z,8888
2016-03-25T08:58:06.928Z,9040
2016-03-25T08:59:07.102Z,9088
2016-03-25T09:00:07.105Z,9088
2016-03-25T09:01:07.077Z,9116
2016-03-25T09:02:07.096Z,9040
2016-03-25T09:03:07.083Z,8996
2016-03-25T09:04:07.116Z,8772
2016-03-25T09:05:07.118Z,8424
2016-03-25T09:06:07.090Z,8032
2016-03-25T09:07:07.109Z,7644
2016-03-25T09:08:07.111Z,7316
2016-03-25T09:09:07.286Z,6984
2016-03-25T09:10:07.132Z,6592
2016-03-25T09:11:07.104Z,6464
2016-03-25T09:12:07.153Z,6412
2016-03-25T09:13:07.093Z,6600
2016-03-25T09:14:07.112Z,6636
2016-03-25T09:15:07.115Z,6896
2016-03-25T09:16:07.101Z,7276
2016-03-25T09:17:07.136Z,7220
2016-03-25T09:18:07.123Z,6496
2016-03-25T09:19:07.110Z,5664
2016-03-25T09:20:07.144Z,5000
2016-03-25T09:21:07.115Z,4664
2016-03-25T09:22:07.165Z,4480
2016-03-25T09:23:07.278Z,4268
2016-03-25T09:24:07.123Z,4468
2016-03-25T09:25:07.158Z,5000
2016-03-25T09:26:07.145Z,4868
2016-03-25T09:27:07.131Z,4772
2016-03-25T09:28:07.181Z,4676
2016-03-25T09:29:07.153Z,4760
2016-03-25T09:30:07.124Z,4688
2016-03-25T09:31:07.158Z,4768
2016-03-25T09:32:07.130Z,5072
2016-03-25T09:33:07.132Z,4976
2016-03-25T09:34:07.182Z,5464
2016-03-25T09:35:07.153Z,5800
2016-03-25T09:36:07.140Z,6036
2016-03-25T09:37:07.143Z,5840
2016-03-25T09:38:07.146Z,5908
2016-03-25T09:39:07.351Z,5460
2016-03-25T09:40:07.151Z,5112
2016-03-25T09:41:07.137Z,5028
2016-03-25T09:42:07.172Z,5280
2016-03-25T09:43:07.143Z,5552
2016-03-25T09:44:07.162Z,5656
2016-03-25T09:45:07.149Z,5912
2016-03-25T09:46:07.167Z,6336
2016-03-25T09:47:07.138Z,7160
2016-03-25T09:48:07.172Z,7232
2016-03-25T09:49:07.144Z,6828
2016-03-25T09:50:07.162Z,6656
2016-03-25T09:51:07.149Z,6440
2016-03-25T09:52:07.153Z,6196
2016-03-25T09:53:07.155Z,5684
2016-03-25T09:54:07.203Z,4760
2016-03-25T09:55:07.176Z,4136
2016-03-25T09:56:07.147Z,3996
2016-03-25T09:57:07.181Z,3804
2016-03-25T09:58:07.168Z,3944
2016-03-25T09:59:07.172Z,3804
2016-03-25T10:00:07.158Z,3872
2016-03-25T10:01:07.161Z,3928
2016-03-25T10:02:07.148Z,3884
2016-03-25T10:03:07.166Z,3840
2016-03-25T10:04:07.169Z,3828
2016-03-25T10:05:07.172Z,3708
2016-03-25T10:06:07.158Z,3952
2016-03-25T10:07:07.161Z,4048
2016-03-25T10:08:07.148Z,4140
2016-03-25T10:09:07.260Z,4180
2016-03-25T10:10:07.185Z,4160
2016-03-25T10:11:07.171Z,4148
2016-03-25T10:12:07.174Z,4520
2016-03-25T10:13:07.177Z,4748
2016-03-25T10:14:07.180Z,4640
2016-03-25T10:15:07.167Z,4232
2016-03-25T10:16:07.169Z,4120
2016-03-25T10:17:07.157Z,3988
2016-03-25T10:18:07.159Z,3800
2016-03-25T10:19:07.162Z,3696
2016-03-25T10:20:07.181Z,3920
2016-03-25T10:21:07.215Z,4116
2016-03-25T10:22:07.186Z,4172
2016-03-25T10:23:07.172Z,4324
2016-03-25T10:24:07.176Z,4412
2016-03-25T10:25:07.194Z,4060
2016-03-25T10:26:07.165Z,4080
2016-03-25T10:27:07.183Z,4348
2016-03-25T10:28:07.202Z,4380
2016-03-25T10:29:07.157Z,4552
2016-03-25T10:30:07.175Z,4748
2016-03-25T10:31:07.194Z,4648
2016-03-25T10:32:07.181Z,4564
2016-03-25T10:33:07.183Z,4568
2016-03-25T10:34:07.218Z,5124
2016-03-25T10:35:07.158Z,5780
2016-03-25T10:36:07.160Z,6032
2016-03-25T10:37:07.179Z,5992
2016-03-25T10:38:07.276Z,5940
2016-03-25T10:39:07.293Z,6116
2016-03-25T10:40:07.171Z,5916
2016-03-25T10:41:07.205Z,5648
2016-03-25T10:42:07.192Z,5448
2016-03-25T10:43:07.179Z,5516
2016-03-25T10:44:07.198Z,5544
2016-03-25T10:45:07.184Z,5732
2016-03-25T10:46:07.187Z,6160
2016-03-25T10:47:06.440Z,6632
2016-03-25T10:48:07.209Z,6960
2016-03-25T10:49:07.211Z,7328
2016-03-25T10:50:07.214Z,7656
2016-03-25T10:51:07.217Z,7776
2016-03-25T10:52:07.219Z,7888
2016-03-25T10:53:07.191Z,7952
2016-03-25T10:54:07.178Z,7976
2016-03-25T10:55:07.196Z,8040
2016-03-25T10:56:07.214Z,8244
2016-03-25T10:57:07.202Z,8524
2016-03-25T10:58:07.204Z,8772
2016-03-25T10:59:07.222Z,9084
2016-03-25T11:00:07.053Z,9388
2016-03-25T11:01:07.196Z,9292
2016-03-25T11:02:07.199Z,9056
2016-03-25T11:03:07.186Z,8680
2016-03-25T11:04:07.221Z,8244
2016-03-25T11:05:07.191Z,8032
2016-03-25T11:06:07.210Z,7924
2016-03-25T11:07:07.197Z,7540
2016-03-25T11:08:07.262Z,6772
2016-03-25T11:09:07.249Z,5956
2016-03-25T11:10:07.237Z,5528
2016-03-25T11:11:07.207Z,5240
2016-03-25T11:12:07.242Z,5160
2016-03-25T11:13:07.245Z,5300
2016-03-25T11:14:07.231Z,5376
2016-03-25T11:15:07.234Z,5372
2016-03-25T11:16:07.237Z,5300
2016-03-25T11:17:07.208Z,5404
2016-03-25T11:18:07.258Z,5776
2016-03-25T11:19:07.245Z,6056
2016-03-25T11:20:07.264Z,6028
2016-03-25T11:21:07.234Z,5968
2016-03-25T11:22:07.237Z,5892
2016-03-25T11:23:07.272Z,5816
2016-03-25T11:24:07.290Z,6016
2016-03-25T11:25:07.293Z,6392
2016-03-25T11:26:07.092Z,6844
2016-03-25T11:27:07.251Z,7156
2016-03-25T11:28:07.270Z,7260
2016-03-25T11:29:07.223Z,7148
2016-03-25T11:30:07.242Z,6964
2016-03-25T11:31:07.259Z,6532
2016-03-25T11:32:07.247Z,6064
2016-03-25T11:33:07.250Z,5832
2016-03-25T11:34:07.267Z,5932
2016-03-25T11:35:07.239Z,6188
2016-03-25T11:36:06.492Z,6460
2016-03-25T11:37:07.275Z,6648
2016-03-25T11:38:07.231Z,6672
2016-03-25T11:39:07.250Z,6688
2016-03-25T11:40:07.253Z,6680
2016-03-25T11:41:07.169Z,6592
2016-03-25T11:42:07.132Z,6536
2016-03-25T11:43:07.275Z,6552
2016-03-25T11:44:12.422Z,6600
2016-03-25T11:45:07.274Z,6612
2016-03-25T11:46:07.230Z,6552
2016-03-25T11:47:07.263Z,6452
2016-03-25T11:48:07.282Z,6388
2016-03-25T11:49:07.253Z,6324
2016-03-25T11:50:07.240Z,6216
2016-03-25T11:51:07.259Z,6180
2016-03-25T11:52:07.276Z,6192
2016-03-25T11:53:07.295Z,6240
2016-03-25T11:54:07.250Z,6280
2016-03-25T11:55:07.256Z,6304
2016-03-25T11:56:07.218Z,6380
2016-03-25T11:57:07.225Z,6420
2016-03-25T11:58:07.216Z,6300
2016-03-25T11:59:07.198Z,6136
2016-03-25T12:00:07.213Z,6024
2016-03-25T12:01:07.211Z,5896
2016-03-25T12:02:07.194Z,5792
2016-03-25T12:03:07.177Z,5788
2016-03-25T12:04:07.224Z,5876
2016-03-25T12:05:07.195Z,5936
2016-03-25T12:06:07.182Z,5800
2016-03-25T12:07:07.229Z,5644
2016-03-25T12:08:07.200Z,5540
2016-03-25T12:09:07.248Z,5444
2016-03-25T12:10:07.235Z,5336
2016-03-25T12:11:07.190Z,5132
2016-03-25T12:12:10.051Z,4936
2016-03-25T12:13:07.178Z,4784
2016-03-25T12:14:07.212Z,4644
2016-03-25T12:15:07.215Z,4544
2016-03-25T12:16:07.202Z,4488
2016-03-25T12:17:07.205Z,4468
2016-03-25T12:18:07.223Z,4500
2016-03-25T12:19:07.225Z,4496
2016-03-25T12:20:07.213Z,4500
2016-03-25T12:21:07.216Z,4512
2016-03-25T12:22:07.202Z,4552
2016-03-25T12:23:07.190Z,4568
2016-03-25T12:24:07.208Z,4580
2016-03-25T12:25:07.180Z,4632
2016-03-25T12:26:07.213Z,4732
2016-03-25T12:27:07.185Z,4880
2016-03-25T12:28:07.202Z,5020
2016-03-25T12:29:07.205Z,5060
2016-03-25T12:30:07.208Z,4972
2016-03-25T12:31:07.195Z,4804
2016-03-25T12:32:07.214Z,4668
2016-03-25T12:33:07.216Z,4548
2016-03-25T12:34:07.203Z,4456
2016-03-25T12:36:02.771Z,4288
2016-03-25T12:37:02.680Z,4212
2016-03-25T12:38:02.729Z,4116
2016-03-25T12:39:02.732Z,4004
2016-03-25T12:40:02.735Z,3900
2016-03-25T12:41:02.707Z,3776
2016-03-25T12:42:02.709Z,3576
2016-03-25T12:43:02.728Z,3304
2016-03-25T12:44:02.715Z,3112
2016-03-25T12:45:02.717Z,2988
2016-03-25T12:46:02.736Z,2876
2016-03-25T12:47:02.722Z,2844
2016-03-25T12:48:02.570Z,2868
2016-03-25T12:49:02.712Z,2916
2016-03-25T12:50:02.731Z,3000
2016-03-25T12:51:02.717Z,3156
2016-03-25T12:52:02.720Z,3340
2016-03-25T12:53:02.739Z,3480
2016-03-25T12:54:02.725Z,3460
2016-03-25T12:55:01.978Z,3384
2016-03-25T12:56:02.685Z,3312
2016-03-25T12:57:02.703Z,3192
2016-03-25T12:58:02.722Z,3072
2016-03-25T12:59:02.693Z,2492
2016-03-25T13:00:02.742Z,2432
2016-03-25T13:01:02.729Z,2412
2016-03-25T13:02:02.747Z,2436
2016-03-25T13:03:02.735Z,2456
2016-03-25T13:04:02.721Z,2440
2016-03-25T13:05:02.755Z,2468
2016-03-25T13:06:02.712Z,2576
2016-03-25T13:07:02.448Z,2620
2016-03-25T13:08:02.763Z,2580
2016-03-25T13:09:02.720Z,2528
2016-03-25T13:10:02.613Z,2496
2016-03-25T13:11:02.740Z,2492
2016-03-25T13:12:02.712Z,2556
2016-03-25T13:13:02.714Z,2644
2016-03-25T13:14:02.718Z,2716
2016-03-25T13:15:02.751Z,2760
2016-03-25T13:16:02.739Z,2820
2016-03-25T13:17:02.726Z,2912
2016-03-25T13:18:02.728Z,2976
2016-03-25T13:19:02.762Z,2916
2016-03-25T13:20:02.733Z,2800
2016-03-25T13:21:02.705Z,2648
2016-03-25T13:22:02.755Z,2516
2016-03-25T13:23:02.726Z,2364
2016-03-25T13:24:02.697Z,2192
2016-03-25T13:25:02.544Z,2112
2016-03-25T13:26:02.749Z,2040
2016-03-25T13:27:02.722Z,1984
2016-03-25T13:28:02.708Z,1960
2016-03-25T13:29:02.711Z,2028
2016-03-25T13:30:02.730Z,2140
2016-03-25T13:31:02.700Z,2200
2016-03-25T13:32:02.766Z,2312
2016-03-25T13:33:02.705Z,2412
2016-03-25T13:34:02.724Z,2472
2016-03-25T13:35:02.758Z,2492
2016-03-25T13:36:02.714Z,2588
2016-03-25T13:37:02.716Z,2716
2016-03-25T13:38:02.719Z,2908
2016-03-25T13:39:02.753Z,3152
2016-03-25T13:40:03.054Z,3468
2016-03-25T13:41:02.712Z,3796
2016-03-25T13:42:02.746Z,4100
2016-03-25T13:43:02.749Z,4468
2016-03-25T13:44:02.735Z,4736
2016-03-25T13:45:02.738Z,4764
2016-03-25T13:46:02.725Z,4660
2016-03-25T13:47:02.728Z,4568
2016-03-25T13:48:02.731Z,4440
2016-03-25T13:49:04.609Z,4172
2016-03-25T13:50:04.111Z,4064
2016-03-25T13:51:03.629Z,4140
2016-03-25T13:52:04.225Z,4324